sensor_id;sensor_type;location;lat;lon;timestamp;pressure;altitude;pressure_sealevel;temperature;humidity
70103;BME280;57470;50.034;15.256;2023-04-23T00:01:03;98839.09;;;12.06;77.83
70103;BME280;57470;50.034;15.256;2023-04-23T00:03:30;98838.28;;;11.94;77.80
70103;BME280;57470;50.034;15.256;2023-04-23T00:05:58;98831.25;;;11.93;78.31
70103;BME280;57470;50.034;15.256;2023-04-23T00:08:24;98832.44;;;12.00;78.07
70103;BME280;57470;50.034;15.256;2023-04-23T00:10:50;98836.84;;;11.90;78.25
70103;BME280;57470;50.034;15.256;2023-04-23T00:13:16;98830.41;;;11.93;78.10
70103;BME280;57470;50.034;15.256;2023-04-23T00:15:42;98826.47;;;11.87;78.34
70103;BME280;57470;50.034;15.256;2023-04-23T00:18:07;98820.44;;;11.74;79.43
70103;BME280;57470;50.034;15.256;2023-04-23T00:20:33;98811.81;;;11.82;79.16
70103;BME280;57470;50.034;15.256;2023-04-23T00:23:00;98811.38;;;11.77;78.79
70103;BME280;57470;50.034;15.256;2023-04-23T00:25:25;98806.00;;;11.88;78.75
70103;BME280;57470;50.034;15.256;2023-04-23T00:27:50;98805.47;;;11.94;78.31
70103;BME280;57470;50.034;15.256;2023-04-23T00:30:16;98806.91;;;11.98;78.06
70103;BME280;57470;50.034;15.256;2023-04-23T00:32:42;98802.69;;;11.95;78.11
70103;BME280;57470;50.034;15.256;2023-04-23T00:35:09;98797.22;;;11.97;78.04
70103;BME280;57470;50.034;15.256;2023-04-23T00:37:34;98798.19;;;11.75;78.96
70103;BME280;57470;50.034;15.256;2023-04-23T00:40:00;98796.38;;;11.96;78.18
70103;BME280;57470;50.034;15.256;2023-04-23T00:42:27;98799.47;;;12.01;77.62
70103;BME280;57470;50.034;15.256;2023-04-23T00:44:52;98791.94;;;11.86;77.97
70103;BME280;57470;50.034;15.256;2023-04-23T00:47:18;98800.56;;;11.99;77.41
70103;BME280;57470;50.034;15.256;2023-04-23T00:49:45;98794.28;;;11.79;77.99
70103;BME280;57470;50.034;15.256;2023-04-23T00:52:10;98806.25;;;11.85;78.69
70103;BME280;57470;50.034;15.256;2023-04-23T00:54:35;98793.88;;;11.84;78.18
70103;BME280;57470;50.034;15.256;2023-04-23T00:57:01;98801.38;;;11.90;78.01
70103;BME280;57470;50.034;15.256;2023-04-23T00:59:28;98793.00;;;11.62;78.89
70103;BME280;57470;50.034;15.256;2023-04-23T01:01:55;98795.31;;;11.56;79.42
70103;BME280;57470;50.034;15.256;2023-04-23T01:04:21;98795.19;;;11.57;79.88
70103;BME280;57470;50.034;15.256;2023-04-23T01:06:48;98799.16;;;11.42;80.39
70103;BME280;57470;50.034;15.256;2023-04-23T01:09:14;98798.53;;;11.39;80.20
70103;BME280;57470;50.034;15.256;2023-04-23T01:11:42;98789.91;;;11.14;81.46
70103;BME280;57470;50.034;15.256;2023-04-23T01:14:09;98802.63;;;11.11;82.56
70103;BME280;57470;50.034;15.256;2023-04-23T01:16:36;98801.06;;;11.08;82.77
70103;BME280;57470;50.034;15.256;2023-04-23T01:19:04;98801.06;;;11.08;81.84
70103;BME280;57470;50.034;15.256;2023-04-23T01:21:31;98797.97;;;11.35;80.37
70103;BME280;57470;50.034;15.256;2023-04-23T01:23:58;98796.66;;;11.18;81.08
70103;BME280;57470;50.034;15.256;2023-04-23T01:26:23;98790.81;;;10.93;82.35
70103;BME280;57470;50.034;15.256;2023-04-23T01:28:49;98799.91;;;10.79;83.50
70103;BME280;57470;50.034;15.256;2023-04-23T01:31:15;98788.53;;;10.88;83.51
70103;BME280;57470;50.034;15.256;2023-04-23T01:33:42;98782.25;;;10.78;83.69
70103;BME280;57470;50.034;15.256;2023-04-23T01:36:08;98787.06;;;10.95;82.99
70103;BME280;57470;50.034;15.256;2023-04-23T01:38:35;98776.69;;;10.81;83.66
70103;BME280;57470;50.034;15.256;2023-04-23T01:41:02;98788.19;;;10.70;83.61
70103;BME280;57470;50.034;15.256;2023-04-23T01:43:27;98780.06;;;10.83;83.78
70103;BME280;57470;50.034;15.256;2023-04-23T01:45:53;98780.69;;;10.75;83.72
70103;BME280;57470;50.034;15.256;2023-04-23T01:48:19;98781.41;;;10.77;84.44
70103;BME280;57470;50.034;15.256;2023-04-23T01:50:44;98783.72;;;10.82;83.40
70103;BME280;57470;50.034;15.256;2023-04-23T01:53:10;98777.16;;;10.75;83.52
70103;BME280;57470;50.034;15.256;2023-04-23T01:55:38;98776.91;;;10.89;83.07
70103;BME280;57470;50.034;15.256;2023-04-23T01:58:04;98783.94;;;10.79;83.22
70103;BME280;57470;50.034;15.256;2023-04-23T02:00:30;98775.97;;;10.79;83.63
70103;BME280;57470;50.034;15.256;2023-04-23T02:02:56;98780.09;;;10.61;85.23
70103;BME280;57470;50.034;15.256;2023-04-23T02:05:23;98777.38;;;10.94;82.97
70103;BME280;57470;50.034;15.256;2023-04-23T02:07:51;98783.81;;;10.80;83.40
70103;BME280;57470;50.034;15.256;2023-04-23T02:10:19;98767.47;;;10.85;82.95
70103;BME280;57470;50.034;15.256;2023-04-23T02:12:46;98771.09;;;10.84;83.03
70103;BME280;57470;50.034;15.256;2023-04-23T02:15:14;98771.22;;;10.94;82.60
70103;BME280;57470;50.034;15.256;2023-04-23T02:17:41;98773.63;;;10.97;82.55
70103;BME280;57470;50.034;15.256;2023-04-23T02:20:10;98763.59;;;11.00;82.33
70103;BME280;57470;50.034;15.256;2023-04-23T02:22:39;98771.81;;;10.97;82.44
70103;BME280;57470;50.034;15.256;2023-04-23T02:25:08;98756.59;;;10.88;82.56
70103;BME280;57470;50.034;15.256;2023-04-23T02:27:35;98756.53;;;11.10;82.25
70103;BME280;57470;50.034;15.256;2023-04-23T02:30:02;98765.50;;;11.09;82.17
70103;BME280;57470;50.034;15.256;2023-04-23T02:32:29;98758.63;;;11.07;82.22
70103;BME280;57470;50.034;15.256;2023-04-23T02:34:56;98756.16;;;11.15;81.90
70103;BME280;57470;50.034;15.256;2023-04-23T02:37:24;98760.75;;;11.13;82.61
70103;BME280;57470;50.034;15.256;2023-04-23T02:39:51;98753.88;;;11.10;81.87
70103;BME280;57470;50.034;15.256;2023-04-23T02:42:18;98765.44;;;11.20;81.00
70103;BME280;57470;50.034;15.256;2023-04-23T02:44:45;98768.50;;;11.16;81.19
70103;BME280;57470;50.034;15.256;2023-04-23T02:47:13;98765.94;;;11.25;81.42
70103;BME280;57470;50.034;15.256;2023-04-23T02:49:39;98765.28;;;11.33;80.69
70103;BME280;57470;50.034;15.256;2023-04-23T02:52:06;98766.03;;;11.35;80.99
70103;BME280;57470;50.034;15.256;2023-04-23T02:54:33;98770.22;;;11.38;80.75
70103;BME280;57470;50.034;15.256;2023-04-23T02:57:01;98767.28;;;11.52;80.19
70103;BME280;57470;50.034;15.256;2023-04-23T02:59:27;98774.88;;;11.56;79.59
70103;BME280;57470;50.034;15.256;2023-04-23T03:01:52;98771.66;;;11.42;80.33
70103;BME280;57470;50.034;15.256;2023-04-23T03:04:18;98778.56;;;11.65;80.17
70103;BME280;57470;50.034;15.256;2023-04-23T03:06:44;98785.91;;;11.73;79.39
70103;BME280;57470;50.034;15.256;2023-04-23T03:09:09;98796.28;;;11.55;80.30
70103;BME280;57470;50.034;15.256;2023-04-23T03:11:35;98795.03;;;11.70;78.86
70103;BME280;57470;50.034;15.256;2023-04-23T03:14:01;98793.25;;;11.59;80.21
70103;BME280;57470;50.034;15.256;2023-04-23T03:16:27;98781.31;;;11.54;80.97
70103;BME280;57470;50.034;15.256;2023-04-23T03:18:54;98784.38;;;11.38;81.11
70103;BME280;57470;50.034;15.256;2023-04-23T03:21:20;98777.31;;;11.48;80.69
70103;BME280;57470;50.034;15.256;2023-04-23T03:23:45;98774.97;;;11.55;80.32
70103;BME280;57470;50.034;15.256;2023-04-23T03:26:10;98772.31;;;11.55;80.55
70103;BME280;57470;50.034;15.256;2023-04-23T03:28:36;98776.41;;;11.38;81.41
70103;BME280;57470;50.034;15.256;2023-04-23T03:31:01;98775.88;;;11.12;82.06
70103;BME280;57470;50.034;15.256;2023-04-23T03:33:27;98781.38;;;11.32;80.88
70103;BME280;57470;50.034;15.256;2023-04-23T03:35:52;98781.34;;;11.43;80.75
70103;BME280;57470;50.034;15.256;2023-04-23T03:38:17;98785.19;;;11.50;80.17
70103;BME280;57470;50.034;15.256;2023-04-23T03:40:43;98780.72;;;11.50;80.44
70103;BME280;57470;50.034;15.256;2023-04-23T03:43:09;98791.53;;;11.38;80.96
70103;BME280;57470;50.034;15.256;2023-04-23T03:45:35;98790.84;;;11.56;80.09
70103;BME280;57470;50.034;15.256;2023-04-23T03:48:00;98790.91;;;11.66;80.02
70103;BME280;57470;50.034;15.256;2023-04-23T03:50:26;98790.84;;;11.56;81.07
70103;BME280;57470;50.034;15.256;2023-04-23T03:52:51;98792.22;;;11.51;80.96
70103;BME280;57470;50.034;15.256;2023-04-23T03:55:17;98795.06;;;11.59;80.82
70103;BME280;57470;50.034;15.256;2023-04-23T03:57:44;98791.81;;;11.55;80.71
70103;BME280;57470;50.034;15.256;2023-04-23T04:00:10;98784.75;;;11.65;80.62
70103;BME280;57470;50.034;15.256;2023-04-23T04:02:36;98787.03;;;11.70;81.13
70103;BME280;57470;50.034;15.256;2023-04-23T04:05:03;98789.59;;;11.72;79.97
70103;BME280;57470;50.034;15.256;2023-04-23T04:07:28;98784.66;;;11.56;80.46
70103;BME280;57470;50.034;15.256;2023-04-23T04:09:54;98782.94;;;11.66;80.20
70103;BME280;57470;50.034;15.256;2023-04-23T04:12:19;98783.13;;;11.74;80.06
70103;BME280;57470;50.034;15.256;2023-04-23T04:14:45;98779.53;;;11.75;79.93
70103;BME280;57470;50.034;15.256;2023-04-23T04:17:10;98783.41;;;11.71;80.73
70103;BME280;57470;50.034;15.256;2023-04-23T04:19:37;98781.56;;;11.51;81.05
70103;BME280;57470;50.034;15.256;2023-04-23T04:22:02;98783.50;;;11.49;80.68
70103;BME280;57470;50.034;15.256;2023-04-23T04:24:28;98797.53;;;11.51;81.00
70103;BME280;57470;50.034;15.256;2023-04-23T04:26:57;98799.88;;;11.76;80.38
70103;BME280;57470;50.034;15.256;2023-04-23T04:29:22;98801.03;;;11.83;80.50
70103;BME280;57470;50.034;15.256;2023-04-23T04:31:48;98793.31;;;11.48;81.81
70103;BME280;57470;50.034;15.256;2023-04-23T04:34:13;98795.59;;;11.53;82.02
70103;BME280;57470;50.034;15.256;2023-04-23T04:36:39;98795.34;;;11.88;81.08
70103;BME280;57470;50.034;15.256;2023-04-23T04:39:05;98802.06;;;11.92;81.21
70103;BME280;57470;50.034;15.256;2023-04-23T04:41:31;98791.53;;;12.11;80.17
70103;BME280;57470;50.034;15.256;2023-04-23T04:43:57;98795.13;;;12.00;80.20
70103;BME280;57470;50.034;15.256;2023-04-23T04:46:22;98794.81;;;12.15;79.13
70103;BME280;57470;50.034;15.256;2023-04-23T04:48:50;98789.34;;;12.16;79.28
70103;BME280;57470;50.034;15.256;2023-04-23T04:51:15;98789.66;;;12.23;80.20
70103;BME280;57470;50.034;15.256;2023-04-23T04:53:41;98791.16;;;12.16;79.61
70103;BME280;57470;50.034;15.256;2023-04-23T04:56:07;98793.66;;;12.08;80.88
70103;BME280;57470;50.034;15.256;2023-04-23T04:58:32;98781.25;;;12.27;80.73
70103;BME280;57470;50.034;15.256;2023-04-23T05:00:58;98785.97;;;12.14;80.60
70103;BME280;57470;50.034;15.256;2023-04-23T05:03:25;98782.75;;;12.20;80.42
70103;BME280;57470;50.034;15.256;2023-04-23T05:05:51;98785.53;;;12.19;80.65
70103;BME280;57470;50.034;15.256;2023-04-23T05:08:19;98784.25;;;12.34;80.21
70103;BME280;57470;50.034;15.256;2023-04-23T05:10:45;98789.09;;;12.50;79.23
70103;BME280;57470;50.034;15.256;2023-04-23T05:13:11;98793.16;;;12.54;80.00
70103;BME280;57470;50.034;15.256;2023-04-23T05:15:36;98791.16;;;12.46;81.22
70103;BME280;57470;50.034;15.256;2023-04-23T05:18:03;98799.34;;;12.54;80.89
70103;BME280;57470;50.034;15.256;2023-04-23T05:20:29;98796.41;;;12.57;81.98
70103;BME280;57470;50.034;15.256;2023-04-23T05:22:54;98788.84;;;12.62;81.85
70103;BME280;57470;50.034;15.256;2023-04-23T05:25:19;98791.56;;;12.82;81.56
70103;BME280;57470;50.034;15.256;2023-04-23T05:27:45;98788.19;;;12.79;82.47
70103;BME280;57470;50.034;15.256;2023-04-23T05:30:10;98783.06;;;12.88;81.83
70103;BME280;57470;50.034;15.256;2023-04-23T05:32:36;98775.34;;;12.94;81.56
70103;BME280;57470;50.034;15.256;2023-04-23T05:35:02;98778.38;;;12.70;81.74
70103;BME280;57470;50.034;15.256;2023-04-23T05:37:28;98796.41;;;12.88;81.90
70103;BME280;57470;50.034;15.256;2023-04-23T05:39:54;98787.56;;;12.97;81.27
70103;BME280;57470;50.034;15.256;2023-04-23T05:42:20;98779.03;;;13.12;82.01
70103;BME280;57470;50.034;15.256;2023-04-23T05:44:45;98772.88;;;13.22;81.19
70103;BME280;57470;50.034;15.256;2023-04-23T05:47:12;98779.09;;;12.92;82.19
70103;BME280;57470;50.034;15.256;2023-04-23T05:49:38;98797.03;;;12.70;83.77
70103;BME280;57470;50.034;15.256;2023-04-23T05:52:03;98793.69;;;12.78;82.79
70103;BME280;57470;50.034;15.256;2023-04-23T05:54:29;98767.56;;;13.31;82.79
70103;BME280;57470;50.034;15.256;2023-04-23T05:56:54;98779.63;;;13.74;81.40
70103;BME280;57470;50.034;15.256;2023-04-23T05:59:20;98771.50;;;13.56;82.53
70103;BME280;57470;50.034;15.256;2023-04-23T06:01:47;98781.59;;;13.52;82.48
70103;BME280;57470;50.034;15.256;2023-04-23T06:04:13;98799.72;;;13.97;80.81
70103;BME280;57470;50.034;15.256;2023-04-23T06:06:38;98799.19;;;13.65;83.24
70103;BME280;57470;50.034;15.256;2023-04-23T06:09:04;98808.75;;;13.48;82.43
70103;BME280;57470;50.034;15.256;2023-04-23T06:11:31;98796.78;;;13.62;79.79
70103;BME280;57470;50.034;15.256;2023-04-23T06:14:01;98805.63;;;13.33;82.25
70103;BME280;57470;50.034;15.256;2023-04-23T06:16:29;98802.69;;;13.46;82.95
70103;BME280;57470;50.034;15.256;2023-04-23T06:18:56;98815.06;;;13.37;84.21
70103;BME280;57470;50.034;15.256;2023-04-23T06:21:24;98807.75;;;13.39;82.29
70103;BME280;57470;50.034;15.256;2023-04-23T06:23:52;98812.28;;;13.77;81.35
70103;BME280;57470;50.034;15.256;2023-04-23T06:26:20;98807.75;;;13.78;82.10
70103;BME280;57470;50.034;15.256;2023-04-23T06:28:46;98805.38;;;14.04;80.51
70103;BME280;57470;50.034;15.256;2023-04-23T06:31:12;98807.72;;;14.16;80.15
70103;BME280;57470;50.034;15.256;2023-04-23T06:33:37;98811.13;;;13.89;80.50
70103;BME280;57470;50.034;15.256;2023-04-23T06:36:03;98805.25;;;13.86;80.46
70103;BME280;57470;50.034;15.256;2023-04-23T06:38:29;98813.66;;;14.10;80.63
70103;BME280;57470;50.034;15.256;2023-04-23T06:40:54;98809.00;;;14.22;79.65
70103;BME280;57470;50.034;15.256;2023-04-23T06:43:20;98808.81;;;14.43;78.50
70103;BME280;57470;50.034;15.256;2023-04-23T06:45:45;98813.66;;;14.10;78.83
70103;BME280;57470;50.034;15.256;2023-04-23T06:48:11;98802.94;;;14.39;79.67
70103;BME280;57470;50.034;15.256;2023-04-23T06:50:36;98817.38;;;14.56;79.30
70103;BME280;57470;50.034;15.256;2023-04-23T06:53:01;98821.44;;;14.87;77.84
70103;BME280;57470;50.034;15.256;2023-04-23T06:55:27;98807.81;;;14.81;78.11
70103;BME280;57470;50.034;15.256;2023-04-23T06:57:53;98805.84;;;15.10;76.98
70103;BME280;57470;50.034;15.256;2023-04-23T07:00:19;98801.78;;;15.06;78.33
70103;BME280;57470;50.034;15.256;2023-04-23T07:02:44;98805.09;;;14.63;78.62
70103;BME280;57470;50.034;15.256;2023-04-23T07:05:11;98802.84;;;15.13;78.55
70103;BME280;57470;50.034;15.256;2023-04-23T07:07:36;98803.22;;;15.00;79.21
70103;BME280;57470;50.034;15.256;2023-04-23T07:10:03;98801.06;;;15.49;76.17
70103;BME280;57470;50.034;15.256;2023-04-23T07:12:29;98799.22;;;15.32;77.82
70103;BME280;57470;50.034;15.256;2023-04-23T07:14:55;98814.47;;;15.04;78.26
70103;BME280;57470;50.034;15.256;2023-04-23T07:17:20;98806.34;;;15.41;77.78
70103;BME280;57470;50.034;15.256;2023-04-23T07:19:46;98804.72;;;15.30;77.03
70103;BME280;57470;50.034;15.256;2023-04-23T07:22:12;98801.72;;;15.61;77.89
70103;BME280;57470;50.034;15.256;2023-04-23T07:24:37;98798.16;;;15.43;78.91
70103;BME280;57470;50.034;15.256;2023-04-23T07:27:03;98788.97;;;15.45;78.77
70103;BME280;57470;50.034;15.256;2023-04-23T07:29:28;98794.41;;;15.89;79.76
70103;BME280;57470;50.034;15.256;2023-04-23T07:31:54;98799.84;;;15.97;79.23
70103;BME280;57470;50.034;15.256;2023-04-23T07:34:20;98807.97;;;16.05;79.57
70103;BME280;57470;50.034;15.256;2023-04-23T07:36:45;98806.69;;;16.35;78.11
70103;BME280;57470;50.034;15.256;2023-04-23T07:39:11;98807.19;;;16.64;78.28
70103;BME280;57470;50.034;15.256;2023-04-23T07:41:36;98811.00;;;16.28;76.96
70103;BME280;57470;50.034;15.256;2023-04-23T07:44:02;98807.06;;;16.48;76.44
70103;BME280;57470;50.034;15.256;2023-04-23T07:46:28;98800.88;;;16.73;78.17
70103;BME280;57470;50.034;15.256;2023-04-23T07:48:53;98797.66;;;17.04;76.59
70103;BME280;57470;50.034;15.256;2023-04-23T07:51:20;98803.34;;;17.01;75.65
70103;BME280;57470;50.034;15.256;2023-04-23T07:53:47;98795.19;;;16.76;77.34
70103;BME280;57470;50.034;15.256;2023-04-23T07:56:16;98798.38;;;16.46;77.57
70103;BME280;57470;50.034;15.256;2023-04-23T07:58:41;98803.13;;;16.60;75.99
70103;BME280;57470;50.034;15.256;2023-04-23T08:01:07;98801.22;;;16.70;75.37
70103;BME280;57470;50.034;15.256;2023-04-23T08:03:32;98806.81;;;16.59;77.39
70103;BME280;57470;50.034;15.256;2023-04-23T08:05:57;98813.75;;;16.62;77.44
70103;BME280;57470;50.034;15.256;2023-04-23T08:08:23;98806.81;;;16.59;78.19
70103;BME280;57470;50.034;15.256;2023-04-23T08:10:48;98803.06;;;16.70;78.33
70103;BME280;57470;50.034;15.256;2023-04-23T08:13:14;98805.13;;;16.84;75.65
70103;BME280;57470;50.034;15.256;2023-04-23T08:15:39;98800.59;;;17.27;76.29
70103;BME280;57470;50.034;15.256;2023-04-23T08:18:05;98798.44;;;16.88;75.32
70103;BME280;57470;50.034;15.256;2023-04-23T08:20:31;98791.16;;;17.22;75.56
70103;BME280;57470;50.034;15.256;2023-04-23T08:22:56;98806.09;;;17.17;75.48
70103;BME280;57470;50.034;15.256;2023-04-23T08:25:22;98796.31;;;17.00;74.55
70103;BME280;57470;50.034;15.256;2023-04-23T08:27:47;98788.47;;;17.14;73.39
70103;BME280;57470;50.034;15.256;2023-04-23T08:30:13;98789.66;;;17.28;73.41
70103;BME280;57470;50.034;15.256;2023-04-23T08:32:39;98791.78;;;17.67;73.57
70103;BME280;57470;50.034;15.256;2023-04-23T08:35:07;98788.75;;;18.18;72.04
70103;BME280;57470;50.034;15.256;2023-04-23T08:37:33;98792.81;;;18.06;72.45
70103;BME280;57470;50.034;15.256;2023-04-23T08:39:59;98788.25;;;17.90;72.28
70103;BME280;57470;50.034;15.256;2023-04-23T08:43:00;98782.56;;;17.85;72.64
70103;BME280;57470;50.034;15.256;2023-04-23T08:45:23;98785.72;;;17.81;74.39
70103;BME280;57470;50.034;15.256;2023-04-23T08:47:49;98788.94;;;17.76;74.04
70103;BME280;57470;50.034;15.256;2023-04-23T08:50:15;98790.41;;;18.52;71.75
70103;BME280;57470;50.034;15.256;2023-04-23T08:52:46;98775.47;;;18.17;73.24
70103;BME280;57470;50.034;15.256;2023-04-23T08:55:12;98784.50;;;18.48;73.05
70103;BME280;57470;50.034;15.256;2023-04-23T08:57:40;98788.34;;;18.54;73.14
70103;BME280;57470;50.034;15.256;2023-04-23T09:00:08;98788.19;;;18.63;71.06
70103;BME280;57470;50.034;15.256;2023-04-23T09:02:36;98786.81;;;18.76;71.11
70103;BME280;57470;50.034;15.256;2023-04-23T09:05:04;98778.00;;;18.90;70.56
70103;BME280;57470;50.034;15.256;2023-04-23T09:07:29;98776.84;;;19.15;68.02
70103;BME280;57470;50.034;15.256;2023-04-23T09:09:55;98774.31;;;19.53;69.78
70103;BME280;57470;50.034;15.256;2023-04-23T09:12:21;98778.50;;;20.01;68.45
70103;BME280;57470;50.034;15.256;2023-04-23T09:14:48;98776.38;;;19.73;69.32
70103;BME280;57470;50.034;15.256;2023-04-23T09:17:16;98782.06;;;20.53;65.76
70103;BME280;57470;50.034;15.256;2023-04-23T09:19:42;98768.78;;;19.69;67.51
70103;BME280;57470;50.034;15.256;2023-04-23T09:22:07;98775.69;;;19.48;69.84
70103;BME280;57470;50.034;15.256;2023-04-23T09:24:34;98778.53;;;19.16;70.05
70103;BME280;57470;50.034;15.256;2023-04-23T09:26:59;98776.84;;;19.77;66.54
70103;BME280;57470;50.034;15.256;2023-04-23T09:29:25;98777.97;;;19.60;70.13
70103;BME280;57470;50.034;15.256;2023-04-23T09:32:06;98779.34;;;19.56;68.20
70103;BME280;57470;50.034;15.256;2023-04-23T09:34:34;98776.59;;;20.24;67.81
70103;BME280;57470;50.034;15.256;2023-04-23T09:37:01;98771.09;;;20.55;66.35
70103;BME280;57470;50.034;15.256;2023-04-23T09:39:28;98778.34;;;20.40;64.65
70103;BME280;57470;50.034;15.256;2023-04-23T09:42:02;98769.50;;;20.46;62.84
70103;BME280;57470;50.034;15.256;2023-04-23T09:44:31;98772.28;;;20.52;63.60
70103;BME280;57470;50.034;15.256;2023-04-23T09:47:05;98774.91;;;20.60;63.60
70103;BME280;57470;50.034;15.256;2023-04-23T09:49:44;98772.13;;;20.16;64.38
70103;BME280;57470;50.034;15.256;2023-04-23T09:52:09;98776.41;;;20.26;64.63
70103;BME280;57470;50.034;15.256;2023-04-23T09:54:34;98774.63;;;20.18;63.56
70103;BME280;57470;50.034;15.256;2023-04-23T09:57:00;98772.44;;;19.99;63.72
70103;BME280;57470;50.034;15.256;2023-04-23T09:59:28;98771.75;;;20.19;63.67
70103;BME280;57470;50.034;15.256;2023-04-23T10:01:54;98768.47;;;20.47;63.22
70103;BME280;57470;50.034;15.256;2023-04-23T10:04:22;98771.00;;;20.48;62.76
70103;BME280;57470;50.034;15.256;2023-04-23T10:07:01;98772.09;;;20.39;63.60
70103;BME280;57470;50.034;15.256;2023-04-23T10:09:28;98783.56;;;20.18;65.30
70103;BME280;57470;50.034;15.256;2023-04-23T10:11:58;98773.34;;;20.29;63.44
70103;BME280;57470;50.034;15.256;2023-04-23T10:14:25;98776.66;;;20.53;63.69
70103;BME280;57470;50.034;15.256;2023-04-23T10:16:59;98771.09;;;20.32;64.00
70103;BME280;57470;50.034;15.256;2023-04-23T10:19:25;98769.31;;;20.24;63.48
70103;BME280;57470;50.034;15.256;2023-04-23T10:21:56;98771.94;;;20.33;64.19
70103;BME280;57470;50.034;15.256;2023-04-23T10:24:26;98772.78;;;20.33;63.45
70103;BME280;57470;50.034;15.256;2023-04-23T10:26:58;98774.53;;;20.11;64.55
70103;BME280;57470;50.034;15.256;2023-04-23T10:29:33;98773.22;;;20.07;65.01
70103;BME280;57470;50.034;15.256;2023-04-23T10:32:01;98772.56;;;20.43;63.22
70103;BME280;57470;50.034;15.256;2023-04-23T10:34:28;98776.31;;;20.19;65.22
70103;BME280;57470;50.034;15.256;2023-04-23T10:36:55;98773.75;;;20.40;63.90
70103;BME280;57470;50.034;15.256;2023-04-23T10:39:23;98771.09;;;20.17;64.42
70103;BME280;57470;50.034;15.256;2023-04-23T10:41:49;98781.13;;;20.61;63.99
70103;BME280;57470;50.034;15.256;2023-04-23T10:44:15;98779.09;;;20.63;63.66
70103;BME280;57470;50.034;15.256;2023-04-23T10:46:56;98772.59;;;20.57;63.53
70103;BME280;57470;50.034;15.256;2023-04-23T10:49:23;98783.56;;;20.56;64.40
70103;BME280;57470;50.034;15.256;2023-04-23T10:52:01;98774.31;;;20.50;64.28
70103;BME280;57470;50.034;15.256;2023-04-23T10:54:30;98777.75;;;20.30;64.80
70103;BME280;57470;50.034;15.256;2023-04-23T10:56:58;98780.63;;;19.68;67.33
70103;BME280;57470;50.034;15.256;2023-04-23T10:59:23;98794.09;;;19.91;67.33
70103;BME280;57470;50.034;15.256;2023-04-23T11:01:49;98790.16;;;20.01;67.71
70103;BME280;57470;50.034;15.256;2023-04-23T11:04:39;98790.69;;;19.74;68.76
70103;BME280;57470;50.034;15.256;2023-04-23T11:07:07;98788.84;;;19.74;69.48
70103;BME280;57470;50.034;15.256;2023-04-23T11:09:48;98793.94;;;19.92;69.02
70103;BME280;57470;50.034;15.256;2023-04-23T11:14:50;98792.66;;;19.80;67.42
70103;BME280;57470;50.034;15.256;2023-04-23T11:17:17;98792.31;;;19.83;67.44
70103;BME280;57470;50.034;15.256;2023-04-23T11:20:09;98795.13;;;20.12;65.48
70103;BME280;57470;50.034;15.256;2023-04-23T11:22:36;98793.13;;;20.06;64.60
70103;BME280;57470;50.034;15.256;2023-04-23T11:25:03;98792.88;;;20.16;64.12
70103;BME280;57470;50.034;15.256;2023-04-23T11:27:30;98794.03;;;20.21;63.36
70103;BME280;57470;50.034;15.256;2023-04-23T11:29:57;98794.19;;;20.20;63.38
70103;BME280;57470;50.034;15.256;2023-04-23T11:32:23;98793.06;;;20.52;63.60
70103;BME280;57470;50.034;15.256;2023-04-23T11:34:49;98801.19;;;20.81;62.60
70103;BME280;57470;50.034;15.256;2023-04-23T11:37:18;98784.28;;;21.09;62.12
70103;BME280;57470;50.034;15.256;2023-04-23T11:39:44;98781.78;;;21.07;61.92
70103;BME280;57470;50.034;15.256;2023-04-23T11:42:15;98787.22;;;20.63;63.12
70103;BME280;57470;50.034;15.256;2023-04-23T11:44:43;98795.31;;;20.92;62.36
70103;BME280;57470;50.034;15.256;2023-04-23T11:47:13;98793.00;;;20.75;62.66
70103;BME280;57470;50.034;15.256;2023-04-23T11:49:40;98787.47;;;20.97;62.40
70103;BME280;57470;50.034;15.256;2023-04-23T11:52:09;98788.50;;;20.67;62.97
70103;BME280;57470;50.034;15.256;2023-04-23T11:54:35;98785.88;;;20.59;62.70
70103;BME280;57470;50.034;15.256;2023-04-23T11:57:01;98795.09;;;20.50;63.43
70103;BME280;57470;50.034;15.256;2023-04-23T11:59:29;98792.34;;;20.20;63.19
70103;BME280;57470;50.034;15.256;2023-04-23T12:01:57;98789.06;;;20.10;63.34
70103;BME280;57470;50.034;15.256;2023-04-23T12:04:24;98791.13;;;19.85;62.50
70103;BME280;57470;50.034;15.256;2023-04-23T12:06:51;98791.81;;;19.57;63.46
70103;BME280;57470;50.034;15.256;2023-04-23T12:09:19;98803.41;;;19.65;64.00
70103;BME280;57470;50.034;15.256;2023-04-23T12:11:45;98798.53;;;19.30;65.63
70103;BME280;57470;50.034;15.256;2023-04-23T12:14:13;98793.59;;;19.33;67.20
70103;BME280;57470;50.034;15.256;2023-04-23T12:16:43;98798.25;;;19.17;68.41
70103;BME280;57470;50.034;15.256;2023-04-23T12:19:14;98798.91;;;19.19;69.49
70103;BME280;57470;50.034;15.256;2023-04-23T12:21:55;98804.97;;;19.21;69.16
70103;BME280;57470;50.034;15.256;2023-04-23T12:24:29;98804.53;;;19.48;68.96
70103;BME280;57470;50.034;15.256;2023-04-23T12:26:57;98811.66;;;19.33;69.27
70103;BME280;57470;50.034;15.256;2023-04-23T12:29:25;98809.09;;;19.39;68.91
70103;BME280;57470;50.034;15.256;2023-04-23T12:31:52;98806.84;;;19.51;69.02
70103;BME280;57470;50.034;15.256;2023-04-23T12:34:19;98808.66;;;19.28;69.07
70103;BME280;57470;50.034;15.256;2023-04-23T12:36:50;98811.84;;;19.62;68.77
70103;BME280;57470;50.034;15.256;2023-04-23T12:41:54;98804.00;;;19.44;69.77
70103;BME280;57470;50.034;15.256;2023-04-23T12:44:21;98811.00;;;19.62;69.27
70103;BME280;57470;50.034;15.256;2023-04-23T12:46:54;98806.00;;;19.51;68.26
70103;BME280;57470;50.034;15.256;2023-04-23T12:49:19;98808.97;;;19.64;68.10
70103;BME280;57470;50.034;15.256;2023-04-23T12:51:45;98814.94;;;19.51;68.27
70103;BME280;57470;50.034;15.256;2023-04-23T12:54:10;98799.13;;;19.48;68.86